Latest Weather Observations for Morawa Airport

IDW60801

Issued at 6:32 pm WST Sunday 19 April 2015 (issued every 30 minutes, with the page automatically refreshed every 10 minutes)

About weather observations | Map of weather stations | Latest weather observations for WA | Other Formats
Station Details ID: 008296 Name: MORAWA AIRPORT Lat: -29.20 Lon: 116.02 Height: 271.4 m
Data from the previous 72 hours. | See also: Recent months at Morawa Airport
Date/Time
WST
Temp
°C
App
Temp
°C
Dew
Point
Rel
Hum
%
Delta-T
°C
Wind Press
QNH
hPa
Press
MSL
hPa
Rain
since 9 am
mm
Dir
 
Spd
km/h
Gust
km/h
Spd
kts
Gust
kts
19/06:30pm 23.0 18.9 2.5 26 9.8 ENE 13 17 7 9 1023.1 1022.0 0.0
19/06:00pm 23.9 19.3 1.5 23 10.6 ENE 15 20 8 11 1022.6 1021.5 0.0
19/05:30pm 25.7 19.7 1.1 20 11.8 ENE 22 32 12 17 1022.2 1021.1 0.0
19/05:00pm 26.5 20.5 1.0 19 12.2 ENE 22 32 12 17 1021.9 1020.8 0.0
19/04:30pm 27.2 20.9 1.6 19 12.5 ENE 24 35 13 19 1021.9 1020.8 0.0
19/04:00pm 27.4 21.0 1.0 18 12.7 ENE 24 35 13 19 1021.8 1020.7 0.0
19/03:30pm 27.8 21.8 1.3 18 12.9 NE 22 35 12 19 1021.8 1020.7 0.0
19/03:00pm 28.3 21.9 0.9 17 13.3 ENE 24 39 13 21 1021.9 1020.8 0.0
19/02:30pm 27.6 21.1 0.4 17 13.0 ENE 24 37 13 20 1021.9 1020.8 0.0
19/02:00pm 27.5 21.4 2.6 20 12.3 ENE 24 33 13 18 1022.1 1021.0 0.0
19/01:30pm 26.6 20.3 3.8 23 11.5 ENE 26 37 14 20 1022.5 1021.4 0.0
19/01:00pm 26.4 20.3 4.8 25 11.1 ENE 26 37 14 20 1022.8 1021.7 0.0
19/12:30pm 25.4 18.9 4.5 26 10.6 ENE 28 35 15 19 1023.4 1022.4 0.0
19/12:00pm 25.6 19.0 4.1 25 10.8 NE 28 35 15 19 1023.9 1022.9 0.0
19/11:30am 24.2 17.2 4.0 27 10.1 NE 30 41 16 22 1024.2 1023.2 0.0
19/11:00am 23.9 17.4 4.8 29 9.6 ENE 28 43 15 23 1024.5 1023.5 0.0
19/10:30am 22.8 15.6 4.8 31 9.0 ENE 32 41 17 22 1024.9 1023.9 0.0
19/10:00am 22.1 15.3 5.1 33 8.5 ENE 30 41 16 22 1025.1 1024.0 0.0
19/09:30am 21.1 13.8 5.5 36 7.8 ENE 33 44 18 24 1025.2 1024.1 0.0
19/09:00am 20.4 13.1 5.6 38 7.4 ENE 33 50 18 27 1025.2 1024.1 0.0
19/08:30am 18.8 12.6 6.0 43 6.4 ENE 28 41 15 22 1025.3 1024.2 0.0
19/08:00am 17.6 12.4 5.5 45 5.9 E 22 32 12 17 1025.1 1024.0 0.0
19/07:30am 16.4 12.6 5.7 49 5.2 E 15 20 8 11 1024.8 1023.8 0.0
19/07:00am 13.4 10.3 5.6 59 3.7 ESE 11 13 6 7 1024.4 1023.4 0.0
19/06:30am 11.5 9.0 4.7 63 3.1 ESE 7 11 4 6 1024.0 1023.0 0.0
19/06:00am 12.7 10.2 4.7 58 3.7 E 7 9 4 5 1023.8 1022.8 0.0
19/05:30am 13.6 11.1 4.7 55 4.2 E 7 9 4 5 1023.5 1022.5 0.0
19/05:00am 14.6 11.6 4.3 50 4.8 E 9 13 5 7 1023.3 1022.2 0.0
19/04:30am 15.7 12.5 5.0 49 5.1 E 11 19 6 10 1023.0 1021.9 0.0
19/04:00am 14.6 12.2 4.3 50 4.8 E 6 9 3 5 1022.9 1021.8 0.0
19/03:30am 15.6 12.6 4.3 47 5.3 ENE 9 11 5 6 1022.7 1021.6 0.0
19/03:00am 14.8 12.3 3.9 48 5.0 NE 6 6 3 3 1022.9 1021.8 0.0
19/02:30am 15.9 13.3 4.0 45 5.6 NE 7 9 4 5 1022.8 1021.7 0.0
19/02:00am 16.3 13.6 3.7 43 5.9 NE 7 11 4 6 1022.9 1021.8 0.0
19/01:30am 18.1 13.8 3.2 37 7.0 ENE 15 22 8 12 1022.9 1021.8 0.0
19/01:00am 16.6 13.6 4.0 43 5.9 ENE 9 15 5 8 1022.7 1021.6 0.0
19/12:30am 16.4 13.2 3.1 41 6.2 ENE 9 13 5 7 1022.5 1021.4 0.0
19/12:00am 16.8 13.6 2.8 39 6.4 ENE 9 13 5 7 1022.6 1021.5 0.0
 
Date/Time
WST
Temp
°C
App
Temp
°C
Dew
Point
Rel
Hum
%
Delta-T
°C
Wind Press
QNH
hPa
Press
MSL
hPa
Rain
since 9 am
mm
Dir
 
Spd
km/h
Gust
km/h
Spd
kts
Gust
kts
18/11:30pm 17.5 13.8 2.3 36 7.0 NE 11 15 6 8 1022.8 1021.7 0.0
18/11:00pm 19.4 15.4 2.7 33 7.8 ENE 13 19 7 10 1022.8 1021.7 0.0
18/10:30pm 17.3 14.3 2.1 36 7.0 ENE 7 13 4 7 1022.7 1021.6 0.0
18/10:00pm 17.3 14.5 2.9 38 6.7 E 7 11 4 6 1022.6 1021.5 0.0
18/09:30pm 17.7 14.8 2.8 37 6.9 E 7 7 4 4 1022.5 1021.4 0.0
18/09:00pm 17.7 14.8 2.8 37 6.9 ESE 7 7 4 4 1022.4 1021.3 0.0
18/08:30pm 17.9 15.3 4.1 40 6.6 E 7 9 4 5 1022.2 1021.1 0.0
18/08:00pm 18.6 16.5 4.0 38 7.0 E 4 6 2 3 1022.0 1020.9 0.0
18/07:30pm 19.5 17.0 3.6 35 7.6 E 6 9 3 5 1021.6 1020.5 0.0
18/07:00pm 20.5 17.6 2.8 31 8.4 E 7 9 4 5 1021.3 1020.2 0.0
18/06:30pm 22.2 19.0 2.8 28 9.3 ENE 9 11 5 6 1020.8 1019.8 0.0
18/06:00pm 24.4 20.0 2.5 24 10.6 ENE 15 22 8 12 1020.5 1019.5 0.0
18/05:30pm 26.0 21.1 2.0 21 11.7 ENE 17 24 9 13 1020.2 1019.2 0.0
18/05:00pm 26.8 21.3 2.0 20 12.1 ENE 20 32 11 17 1019.8 1018.7 0.0
18/04:30pm 27.3 21.1 2.4 20 12.3 E 24 35 13 19 1019.6 1018.5 0.0
18/04:00pm 27.5 21.4 2.6 20 12.4 ENE 24 35 13 19 1019.7 1018.6 0.0
18/03:30pm 27.8 22.1 2.8 20 12.5 E 22 33 12 18 1019.9 1018.8 0.0
18/03:00pm 27.9 23.3 5.5 24 11.7 ENE 19 35 10 19 1019.9 1018.8 0.0
18/02:30pm 27.3 22.1 5.6 25 11.4 E 22 33 12 18 1020.0 1018.9 0.0
18/02:00pm 26.9 21.4 5.8 26 11.0 ENE 24 37 13 20 1020.1 1019.1 0.0
18/01:30pm 26.9 21.8 5.8 26 11.1 E 22 33 12 18 1020.4 1019.4 0.0
18/01:00pm 26.5 21.0 6.0 27 10.7 ENE 24 33 13 18 1020.7 1019.7 0.0
18/12:30pm 26.0 21.3 7.6 31 9.9 E 22 35 12 19 1021.3 1020.2 0.0
18/12:00pm 25.3 20.6 7.9 33 9.3 ENE 22 32 12 17 1021.8 1020.7 0.0
18/11:30am 25.1 20.6 8.6 35 9.0 ENE 22 35 12 19 1022.2 1021.1 0.0
18/11:00am 24.4 20.0 8.8 37 8.5 ENE 22 33 12 18 1022.5 1021.4 0.0
18/10:30am 23.8 19.0 9.0 39 8.1 ENE 24 35 13 19 1022.8 1021.7 0.0
18/10:00am 23.0 18.6 9.0 41 7.6 ENE 22 32 12 17 1023.0 1021.9 0.0
18/09:30am 21.9 17.7 9.8 46 6.6 ENE 22 32 12 17 1023.0 1021.9 0.0
18/09:00am 20.5 16.9 9.7 50 5.8 ENE 19 28 10 15 1023.0 1021.9 0.0
18/08:30am 19.1 15.8 9.6 54 5.1 ENE 17 26 9 14 1022.9 1021.8 0.0
18/08:00am 17.5 16.0 9.2 58 4.4 E 7 13 4 7 1022.5 1021.4 0.0
18/07:30am 15.2 13.8 8.9 66 3.3 ENE 6 7 3 4 1022.1 1021.0 0.0
18/07:00am 13.5 11.9 8.6 72 2.5 ENE 7 9 4 5 1021.9 1020.8 0.0
18/06:30am 13.6 11.4 8.0 69 2.8 E 9 11 5 6 1021.6 1020.5 0.0
18/06:00am 13.4 11.7 8.3 71 2.6 ENE 7 11 4 6 1021.4 1020.3 0.0
18/05:30am 13.3 11.6 7.5 68 2.9 E 6 6 3 3 1021.3 1020.2 0.0
18/05:00am 13.8 11.6 8.0 68 2.9 E 9 11 5 6 1021.0 1020.0 0.0
18/04:30am 13.7 11.9 7.9 68 2.9 ESE 7 9 4 5 1020.7 1019.7 0.0
18/04:00am 14.0 12.4 8.0 67 3.0 ESE 6 7 3 4 1020.5 1019.5 0.0
18/03:30am 14.6 12.8 7.9 64 3.4 E 7 9 4 5 1020.5 1019.5 0.0
18/03:00am 15.2 13.3 7.7 61 3.8 ESE 7 9 4 5 1020.6 1019.6 0.0
18/02:30am 15.8 13.3 8.1 60 3.9 ESE 11 15 6 8 1020.8 1019.8 0.0
18/02:00am 16.0 13.5 8.0 59 4.1 ESE 11 15 6 8 1020.8 1019.8 0.0
18/01:30am 16.4 13.4 7.9 57 4.3 E 13 17 7 9 1021.0 1020.0 0.0
18/01:00am 16.7 14.1 7.9 56 4.5 ESE 11 15 6 8 1021.3 1020.2 0.0
18/12:30am 17.4 14.1 8.0 54 4.8 ESE 15 20 8 11 1021.3 1020.2 0.0
18/12:00am 17.7 14.4 8.0 53 5.0 ESE 15 19 8 10 1021.4 1020.3 0.0
 
Date/Time
WST
Temp
°C
App
Temp
°C
Dew
Point
Rel
Hum
%
Delta-T
°C
Wind Press
QNH
hPa
Press
MSL
hPa
Rain
since 9 am
mm
Dir
 
Spd
km/h
Gust
km/h
Spd
kts
Gust
kts
17/11:30pm 18.3 15.0 8.0 51 5.3 ESE 15 20 8 11 1021.3 1020.2 0.0
17/11:00pm 18.2 15.0 8.5 53 5.1 SE 15 17 8 9 1021.5 1020.4 0.0
17/10:30pm 17.6 14.9 9.0 57 4.5 SE 13 17 7 9 1021.4 1020.3 0.0
17/10:00pm 17.1 15.5 8.8 58 4.3 SSE 7 11 4 6 1021.4 1020.3 0.0
17/09:30pm 17.3 15.7 8.7 57 4.5 SSE 7 9 4 5 1021.5 1020.4 0.0
17/09:00pm 17.4 15.4 8.5 56 4.6 SSE 9 9 5 5 1021.3 1020.2 0.0
17/08:30pm 18.0 16.2 8.0 52 5.2 SE 7 9 4 5 1020.8 1019.8 0.0
17/08:00pm 18.9 16.8 8.3 50 5.5 ESE 9 11 5 6 1020.7 1019.7 0.0
17/07:30pm 19.0 16.9 8.4 50 5.6 SE 9 11 5 6 1020.6 1019.6 0.0
17/07:00pm 19.9 17.9 8.6 48 6.0 SE 9 11 5 6 1020.5 1019.5 0.0
17/06:30pm 21.1 19.0 8.4 44 6.7 SE 9 13 5 7 1020.1 1019.1 0.0
17/06:00pm 22.8 19.3 7.4 37 8.1 ESE 15 19 8 10 1019.9 1018.8 0.0
17/05:30pm 23.8 20.0 7.4 35 8.7 ESE 17 22 9 12 1019.4 1018.3 0.0
17/05:00pm 24.3 20.6 7.9 35 8.8 ESE 17 22 9 12 1019.3 1018.2 0.0
17/04:30pm 24.7 21.0 7.8 34 9.1 ESE 17 28 9 15 1019.3 1018.2 0.0
17/04:00pm 25.3 21.5 7.4 32 9.5 ESE 17 24 9 13 1019.4 1018.3 0.0
17/03:30pm 25.7 21.5 7.3 31 9.8 SE 19 24 10 13 1019.5 1018.4 0.0
17/03:00pm 25.8 22.0 7.4 31 9.8 ESE 17 24 9 13 1019.5 1018.4 0.0
17/02:30pm 26.0 22.7 8.0 32 9.8 ESE 15 26 8 14 1019.7 1018.6 0.0
17/02:00pm 25.1 21.3 7.7 33 9.3 ESE 17 28 9 15 1019.9 1018.8 0.0
17/01:30pm 25.0 20.9 8.5 35 9.0 E 20 33 11 18 1020.3 1019.3 0.0
17/01:00pm 24.6 21.2 9.0 37 8.5 E 17 26 9 14 1020.8 1019.8 0.0
17/12:30pm 23.7 20.4 9.7 41 7.7 E 17 22 9 12 1021.4 1020.3 0.0
17/12:00pm 23.0 19.4 9.8 43 7.2 ENE 19 32 10 17 1022.1 1021.0 0.0
17/11:30am 22.6 19.2 10.4 46 6.8 E 19 33 10 18 1022.8 1021.7 0.0
17/11:00am 22.2 18.6 10.7 48 6.4 ENE 20 33 11 18 1023.4 1022.4 0.0
17/10:30am 21.3 17.5 11.1 52 5.7 ENE 22 33 12 18 1023.9 1022.9 0.0
17/10:00am 20.8 16.9 10.9 53 5.5 ENE 22 32 12 17 1024.1 1023.1 0.0
17/09:30am 19.5 15.7 11.0 58 4.7 ENE 22 30 12 16 1024.6 1023.6 0.0
17/09:00am 18.4 14.5 10.8 61 4.1 ENE 22 32 12 17 1024.7 1023.7 0.0
17/08:30am 17.8 14.2 10.7 63 3.9 E 20 28 11 15 1024.7 1023.7 0.0
17/08:00am 16.6 13.2 10.7 68 3.2 E 19 28 10 15 1024.6 1023.6 0.0
17/07:30am 15.3 14.0 11.1 76 2.3 E 9 15 5 8 1024.6 1023.6 0.0
17/07:00am 13.4 12.4 10.9 85 1.3 ENE 7 9 4 5 1024.4 1023.4 0.0
17/06:30am 12.3 10.8 10.4 88 1.0 ESE 9 11 5 6 1024.3 1023.3 0.0
17/06:00am 12.7 11.1 10.1 84 1.4 ESE 9 11 5 6 1024.2 1023.2 0.0
17/05:30am 13.8 11.8 10.2 79 1.9 E 11 13 6 7 1024.1 1023.1 0.0
17/05:00am 14.1 12.1 10.3 78 2.0 E 11 15 6 8 1024.1 1023.1 0.0
17/04:30am 14.3 12.0 10.3 77 2.1 E 13 15 7 8 1024.1 1023.1 0.0
17/04:00am 14.8 11.7 10.4 75 2.3 E 17 22 9 12 1023.9 1022.9 0.0
17/03:30am 15.2 11.8 10.6 74 2.5 E 19 26 10 14 1024.0 1023.0 0.0
17/03:00am 15.5 12.0 10.9 74 2.5 E 20 28 11 15 1024.0 1023.0 0.0
17/02:30am 15.5 12.6 10.9 74 2.5 ENE 17 22 9 12 1024.3 1023.3 0.0
17/02:00am 15.3 13.1 10.9 75 2.4 E 13 19 7 10 1024.5 1023.5 0.0
17/01:30am 15.4 13.6 10.8 74 2.5 E 11 17 6 9 1024.6 1023.6 0.0
17/01:00am 14.9 13.4 10.7 76 2.2 E 9 11 5 6 1024.9 1023.9 0.0
17/12:30am 15.1 13.6 10.7 75 2.4 E 9 13 5 7 1025.2 1024.1 0.0
17/12:00am 15.4 13.9 10.6 73 2.6 E 9 13 5 7 1025.2 1024.1 0.0
 
Date/Time
WST
Temp
°C
App
Temp
°C
Dew
Point
Rel
Hum
%
Delta-T
°C
Wind Press
QNH
hPa
Press
MSL
hPa
Rain
since 9 am
mm
Dir
 
Spd
km/h
Gust
km/h
Spd
kts
Gust
kts
16/11:30pm 16.1 14.2 10.6 70 3.0 ENE 11 15 6 8 1025.4 1024.3 0.0
16/11:00pm 16.7 14.7 10.3 66 3.4 ENE 11 15 6 8 1025.8 1024.7 0.0
16/10:30pm 17.3 14.8 9.7 61 4.0 ENE 13 19 7 10 1025.9 1024.8 0.0
16/10:00pm 17.3 14.5 8.4 56 4.6 E 13 19 7 10 1026.0 1024.9 0.0
16/09:30pm 16.9 14.4 8.3 57 4.4 SE 11 15 6 8 1025.7 1024.6 0.0
16/09:00pm 17.3 14.8 8.4 56 4.6 SE 11 15 6 8 1025.9 1024.8 0.0
16/08:30pm 17.4 14.9 8.3 55 4.7 SE 11 15 6 8 1025.8 1024.7 0.0
16/08:00pm 18.1 16.0 8.4 53 5.0 ESE 9 13 5 7 1025.6 1024.5 0.0
16/07:30pm 18.2 15.9 7.6 50 5.4 ESE 9 11 5 6 1025.4 1024.3 0.0
16/07:00pm 19.9 16.8 7.3 44 6.5 ESE 13 17 7 9 1025.2 1024.1 0.0

Other Formats:

Comma delimited format used in spreadsheet applications
http://www.bom.gov.au/fwo/IDW60801/IDW60801.94417.axf

JavaScript Object Notation format (JSON) in row-major order
http://www.bom.gov.au/fwo/IDW60801/IDW60801.94417.json